sensor_id;sensor_type;location;lat;lon;timestamp;temperature;humidity
25640;DHT22;13497;48.322;16.204;2023-11-19T00:00:10;2.80;99.90
25640;DHT22;13497;48.322;16.204;2023-11-19T00:02:40;2.80;99.90
25640;DHT22;13497;48.322;16.204;2023-11-19T00:05:06;2.80;99.90
25640;DHT22;13497;48.322;16.204;2023-11-19T00:07:37;2.90;99.90
25640;DHT22;13497;48.322;16.204;2023-11-19T00:10:08;3.00;99.90
25640;DHT22;13497;48.322;16.204;2023-11-19T00:12:36;3.20;99.90
25640;DHT22;13497;48.322;16.204;2023-11-19T00:15:01;3.20;99.90
25640;DHT22;13497;48.322;16.204;2023-11-19T00:17:27;3.30;99.90
25640;DHT22;13497;48.322;16.204;2023-11-19T00:19:53;3.20;99.90
25640;DHT22;13497;48.322;16.204;2023-11-19T00:22:18;3.20;99.90
25640;DHT22;13497;48.322;16.204;2023-11-19T00:24:46;3.20;99.90
25640;DHT22;13497;48.322;16.204;2023-11-19T00:27:12;3.30;99.90
25640;DHT22;13497;48.322;16.204;2023-11-19T00:29:38;3.30;99.90
25640;DHT22;13497;48.322;16.204;2023-11-19T00:32:04;3.30;99.90
25640;DHT22;13497;48.322;16.204;2023-11-19T00:34:30;3.20;99.90
25640;DHT22;13497;48.322;16.204;2023-11-19T00:36:56;3.30;99.90
25640;DHT22;13497;48.322;16.204;2023-11-19T00:39:22;3.40;99.90
25640;DHT22;13497;48.322;16.204;2023-11-19T00:41:48;3.30;99.90
25640;DHT22;13497;48.322;16.204;2023-11-19T00:44:14;3.30;99.90
25640;DHT22;13497;48.322;16.204;2023-11-19T00:46:39;3.30;99.90
25640;DHT22;13497;48.322;16.204;2023-11-19T00:49:05;3.40;99.90
25640;DHT22;13497;48.322;16.204;2023-11-19T00:51:31;3.50;99.90
25640;DHT22;13497;48.322;16.204;2023-11-19T00:53:57;3.50;99.90
25640;DHT22;13497;48.322;16.204;2023-11-19T00:56:24;3.50;99.90
25640;DHT22;13497;48.322;16.204;2023-11-19T00:58:50;3.50;99.90
25640;DHT22;13497;48.322;16.204;2023-11-19T01:01:15;3.60;99.90
25640;DHT22;13497;48.322;16.204;2023-11-19T01:03:41;3.80;99.90
25640;DHT22;13497;48.322;16.204;2023-11-19T01:06:07;3.80;99.90
25640;DHT22;13497;48.322;16.204;2023-11-19T01:08:33;3.80;99.90
25640;DHT22;13497;48.322;16.204;2023-11-19T01:11:01;3.90;99.90
25640;DHT22;13497;48.322;16.204;2023-11-19T01:13:27;3.90;99.90
25640;DHT22;13497;48.322;16.204;2023-11-19T01:15:53;4.00;99.90
25640;DHT22;13497;48.322;16.204;2023-11-19T01:18:21;4.00;99.90
25640;DHT22;13497;48.322;16.204;2023-11-19T01:20:47;3.90;99.90
25640;DHT22;13497;48.322;16.204;2023-11-19T01:23:13;3.80;99.90
25640;DHT22;13497;48.322;16.204;2023-11-19T01:25:38;3.70;99.90
25640;DHT22;13497;48.322;16.204;2023-11-19T01:28:04;3.70;99.90
25640;DHT22;13497;48.322;16.204;2023-11-19T01:30:30;3.70;99.90
25640;DHT22;13497;48.322;16.204;2023-11-19T01:32:56;3.80;99.90
25640;DHT22;13497;48.322;16.204;2023-11-19T01:35:21;3.80;99.90
25640;DHT22;13497;48.322;16.204;2023-11-19T01:37:48;3.70;99.90
25640;DHT22;13497;48.322;16.204;2023-11-19T01:40:21;3.60;99.90
25640;DHT22;13497;48.322;16.204;2023-11-19T01:42:47;3.40;99.90
25640;DHT22;13497;48.322;16.204;2023-11-19T01:45:22;3.20;99.90
25640;DHT22;13497;48.322;16.204;2023-11-19T01:47:52;3.20;99.90
25640;DHT22;13497;48.322;16.204;2023-11-19T01:50:18;3.10;99.90
25640;DHT22;13497;48.322;16.204;2023-11-19T01:52:44;3.10;99.90
25640;DHT22;13497;48.322;16.204;2023-11-19T01:55:11;3.10;99.90
25640;DHT22;13497;48.322;16.204;2023-11-19T01:57:38;3.10;99.90
25640;DHT22;13497;48.322;16.204;2023-11-19T02:00:06;3.20;99.90
25640;DHT22;13497;48.322;16.204;2023-11-19T02:02:32;3.10;99.90
25640;DHT22;13497;48.322;16.204;2023-11-19T02:04:58;3.20;99.90
25640;DHT22;13497;48.322;16.204;2023-11-19T02:07:24;3.20;99.90
25640;DHT22;13497;48.322;16.204;2023-11-19T02:09:50;3.30;99.90
25640;DHT22;13497;48.322;16.204;2023-11-19T02:12:16;3.20;99.90
25640;DHT22;13497;48.322;16.204;2023-11-19T02:14:42;3.20;99.90
25640;DHT22;13497;48.322;16.204;2023-11-19T02:17:28;3.30;99.90
25640;DHT22;13497;48.322;16.204;2023-11-19T02:19:54;3.30;99.90
25640;DHT22;13497;48.322;16.204;2023-11-19T02:22:19;3.40;99.90
25640;DHT22;13497;48.322;16.204;2023-11-19T02:24:47;3.40;99.90
25640;DHT22;13497;48.322;16.204;2023-11-19T02:30:02;3.50;99.90
25640;DHT22;13497;48.322;16.204;2023-11-19T02:32:31;3.30;99.90
25640;DHT22;13497;48.322;16.204;2023-11-19T02:34:57;3.40;99.90
25640;DHT22;13497;48.322;16.204;2023-11-19T02:37:22;3.40;99.90
25640;DHT22;13497;48.322;16.204;2023-11-19T02:39:48;3.40;99.90
25640;DHT22;13497;48.322;16.204;2023-11-19T02:42:14;3.40;99.90
25640;DHT22;13497;48.322;16.204;2023-11-19T02:44:44;3.40;99.90
25640;DHT22;13497;48.322;16.204;2023-11-19T02:47:09;3.30;99.90
25640;DHT22;13497;48.322;16.204;2023-11-19T02:49:35;3.20;99.90
25640;DHT22;13497;48.322;16.204;2023-11-19T02:52:03;3.10;99.90
25640;DHT22;13497;48.322;16.204;2023-11-19T02:54:31;3.10;99.90
25640;DHT22;13497;48.322;16.204;2023-11-19T02:57:00;3.10;99.90
25640;DHT22;13497;48.322;16.204;2023-11-19T02:59:28;3.10;99.90
25640;DHT22;13497;48.322;16.204;2023-11-19T03:02:04;3.10;99.90
25640;DHT22;13497;48.322;16.204;2023-11-19T03:04:32;3.20;99.90
25640;DHT22;13497;48.322;16.204;2023-11-19T03:06:58;3.20;99.90
25640;DHT22;13497;48.322;16.204;2023-11-19T03:09:23;3.20;99.90
25640;DHT22;13497;48.322;16.204;2023-11-19T03:11:50;3.20;99.90
25640;DHT22;13497;48.322;16.204;2023-11-19T03:14:15;3.20;99.90
25640;DHT22;13497;48.322;16.204;2023-11-19T03:16:45;3.20;99.90
25640;DHT22;13497;48.322;16.204;2023-11-19T03:19:11;3.10;99.90
25640;DHT22;13497;48.322;16.204;2023-11-19T03:21:37;3.10;99.90
25640;DHT22;13497;48.322;16.204;2023-11-19T03:24:03;3.00;99.90
25640;DHT22;13497;48.322;16.204;2023-11-19T03:26:29;2.90;99.90
25640;DHT22;13497;48.322;16.204;2023-11-19T03:28:55;2.90;99.90
25640;DHT22;13497;48.322;16.204;2023-11-19T03:31:22;2.90;99.90
25640;DHT22;13497;48.322;16.204;2023-11-19T03:33:48;3.00;99.90
25640;DHT22;13497;48.322;16.204;2023-11-19T03:36:13;3.00;99.90
25640;DHT22;13497;48.322;16.204;2023-11-19T03:38:39;3.00;99.90
25640;DHT22;13497;48.322;16.204;2023-11-19T03:41:14;3.10;99.90
25640;DHT22;13497;48.322;16.204;2023-11-19T03:43:40;3.10;99.90
25640;DHT22;13497;48.322;16.204;2023-11-19T03:46:19;3.10;99.90
25640;DHT22;13497;48.322;16.204;2023-11-19T03:48:49;3.10;99.90
25640;DHT22;13497;48.322;16.204;2023-11-19T03:51:15;3.10;99.90
25640;DHT22;13497;48.322;16.204;2023-11-19T03:53:47;3.20;99.90
25640;DHT22;13497;48.322;16.204;2023-11-19T03:56:13;3.20;99.90
25640;DHT22;13497;48.322;16.204;2023-11-19T03:58:39;3.20;99.90
25640;DHT22;13497;48.322;16.204;2023-11-19T04:01:10;3.30;99.90
25640;DHT22;13497;48.322;16.204;2023-11-19T04:03:36;3.30;99.90
25640;DHT22;13497;48.322;16.204;2023-11-19T04:06:02;3.20;99.90
25640;DHT22;13497;48.322;16.204;2023-11-19T04:08:28;3.30;99.90
25640;DHT22;13497;48.322;16.204;2023-11-19T04:10:54;3.30;99.90
25640;DHT22;13497;48.322;16.204;2023-11-19T04:13:20;3.40;99.90
25640;DHT22;13497;48.322;16.204;2023-11-19T04:15:45;3.40;99.90
25640;DHT22;13497;48.322;16.204;2023-11-19T04:18:11;3.50;99.90
25640;DHT22;13497;48.322;16.204;2023-11-19T04:20:37;3.40;99.90
25640;DHT22;13497;48.322;16.204;2023-11-19T04:23:02;3.40;99.90
25640;DHT22;13497;48.322;16.204;2023-11-19T04:25:28;3.40;99.90
25640;DHT22;13497;48.322;16.204;2023-11-19T04:27:54;3.50;99.90
25640;DHT22;13497;48.322;16.204;2023-11-19T04:30:20;3.60;99.90
25640;DHT22;13497;48.322;16.204;2023-11-19T04:32:45;3.70;99.90
25640;DHT22;13497;48.322;16.204;2023-11-19T04:35:11;3.80;99.90
25640;DHT22;13497;48.322;16.204;2023-11-19T04:37:37;3.90;99.90
25640;DHT22;13497;48.322;16.204;2023-11-19T04:40:03;4.00;99.90
25640;DHT22;13497;48.322;16.204;2023-11-19T04:42:29;4.00;99.90
25640;DHT22;13497;48.322;16.204;2023-11-19T04:44:55;4.10;99.90
25640;DHT22;13497;48.322;16.204;2023-11-19T04:47:21;4.20;99.90
25640;DHT22;13497;48.322;16.204;2023-11-19T04:49:47;4.20;99.90
25640;DHT22;13497;48.322;16.204;2023-11-19T04:52:13;4.30;99.90
25640;DHT22;13497;48.322;16.204;2023-11-19T04:54:42;4.30;99.90
25640;DHT22;13497;48.322;16.204;2023-11-19T04:57:09;4.30;99.90
25640;DHT22;13497;48.322;16.204;2023-11-19T04:59:37;4.10;99.90
25640;DHT22;13497;48.322;16.204;2023-11-19T05:02:04;4.20;99.90
25640;DHT22;13497;48.322;16.204;2023-11-19T05:04:30;4.20;99.90
25640;DHT22;13497;48.322;16.204;2023-11-19T05:06:56;4.10;99.90
25640;DHT22;13497;48.322;16.204;2023-11-19T05:09:21;4.20;99.90
25640;DHT22;13497;48.322;16.204;2023-11-19T05:11:47;4.20;99.90
25640;DHT22;13497;48.322;16.204;2023-11-19T05:14:14;4.20;99.90
25640;DHT22;13497;48.322;16.204;2023-11-19T05:16:40;4.10;99.90
25640;DHT22;13497;48.322;16.204;2023-11-19T05:19:06;4.10;99.90
25640;DHT22;13497;48.322;16.204;2023-11-19T05:21:31;4.20;99.90
25640;DHT22;13497;48.322;16.204;2023-11-19T05:23:57;4.10;99.90
25640;DHT22;13497;48.322;16.204;2023-11-19T05:26:23;3.90;99.90
25640;DHT22;13497;48.322;16.204;2023-11-19T05:28:50;3.80;99.90
25640;DHT22;13497;48.322;16.204;2023-11-19T05:31:16;3.80;99.90
25640;DHT22;13497;48.322;16.204;2023-11-19T05:33:42;3.80;99.90
25640;DHT22;13497;48.322;16.204;2023-11-19T05:36:08;3.70;99.90
25640;DHT22;13497;48.322;16.204;2023-11-19T05:38:36;3.60;99.90
25640;DHT22;13497;48.322;16.204;2023-11-19T05:41:02;3.60;99.90
25640;DHT22;13497;48.322;16.204;2023-11-19T05:43:28;3.50;99.90
25640;DHT22;13497;48.322;16.204;2023-11-19T05:45:54;3.60;99.90
25640;DHT22;13497;48.322;16.204;2023-11-19T05:48:20;3.60;99.90
25640;DHT22;13497;48.322;16.204;2023-11-19T05:50:45;3.60;99.90
25640;DHT22;13497;48.322;16.204;2023-11-19T05:53:11;3.60;99.90
25640;DHT22;13497;48.322;16.204;2023-11-19T05:55:40;3.70;99.90
25640;DHT22;13497;48.322;16.204;2023-11-19T05:58:12;3.80;99.90
25640;DHT22;13497;48.322;16.204;2023-11-19T06:00:38;3.80;99.90
25640;DHT22;13497;48.322;16.204;2023-11-19T06:03:07;4.00;99.90
25640;DHT22;13497;48.322;16.204;2023-11-19T06:05:32;4.20;99.90
25640;DHT22;13497;48.322;16.204;2023-11-19T06:07:58;4.30;99.90
25640;DHT22;13497;48.322;16.204;2023-11-19T06:10:24;4.30;99.90
25640;DHT22;13497;48.322;16.204;2023-11-19T06:12:59;4.50;99.90
25640;DHT22;13497;48.322;16.204;2023-11-19T06:15:28;4.60;99.90
25640;DHT22;13497;48.322;16.204;2023-11-19T06:17:54;4.70;99.90
25640;DHT22;13497;48.322;16.204;2023-11-19T06:20:26;4.70;99.90
25640;DHT22;13497;48.322;16.204;2023-11-19T06:22:54;4.80;99.90
25640;DHT22;13497;48.322;16.204;2023-11-19T06:25:20;4.70;99.90
25640;DHT22;13497;48.322;16.204;2023-11-19T06:27:45;4.70;99.90
25640;DHT22;13497;48.322;16.204;2023-11-19T06:30:11;4.60;99.90
25640;DHT22;13497;48.322;16.204;2023-11-19T06:32:37;4.60;99.90
25640;DHT22;13497;48.322;16.204;2023-11-19T06:35:03;4.60;99.90
25640;DHT22;13497;48.322;16.204;2023-11-19T06:37:33;4.50;99.90
25640;DHT22;13497;48.322;16.204;2023-11-19T06:39:59;4.60;99.90
25640;DHT22;13497;48.322;16.204;2023-11-19T06:42:24;4.70;99.90
25640;DHT22;13497;48.322;16.204;2023-11-19T06:44:50;4.70;99.90
25640;DHT22;13497;48.322;16.204;2023-11-19T06:47:17;4.70;99.90
25640;DHT22;13497;48.322;16.204;2023-11-19T06:49:45;4.70;99.90
25640;DHT22;13497;48.322;16.204;2023-11-19T06:52:11;4.70;99.90
25640;DHT22;13497;48.322;16.204;2023-11-19T06:54:39;4.70;99.90
25640;DHT22;13497;48.322;16.204;2023-11-19T06:57:05;4.70;99.90
25640;DHT22;13497;48.322;16.204;2023-11-19T06:59:31;4.70;99.90
25640;DHT22;13497;48.322;16.204;2023-11-19T07:01:57;4.60;99.90
25640;DHT22;13497;48.322;16.204;2023-11-19T07:04:22;4.70;99.90
25640;DHT22;13497;48.322;16.204;2023-11-19T07:06:48;4.70;99.90
25640;DHT22;13497;48.322;16.204;2023-11-19T07:09:14;4.70;99.90
25640;DHT22;13497;48.322;16.204;2023-11-19T07:11:41;4.70;99.90
25640;DHT22;13497;48.322;16.204;2023-11-19T07:14:07;4.80;99.90
25640;DHT22;13497;48.322;16.204;2023-11-19T07:16:34;4.90;99.90
25640;DHT22;13497;48.322;16.204;2023-11-19T07:19:03;5.00;99.90
25640;DHT22;13497;48.322;16.204;2023-11-19T07:21:29;4.90;99.90
25640;DHT22;13497;48.322;16.204;2023-11-19T07:23:55;4.80;99.90
25640;DHT22;13497;48.322;16.204;2023-11-19T07:26:21;4.80;99.90
25640;DHT22;13497;48.322;16.204;2023-11-19T07:28:48;4.80;99.90
25640;DHT22;13497;48.322;16.204;2023-11-19T07:31:14;4.90;99.90
25640;DHT22;13497;48.322;16.204;2023-11-19T07:33:40;4.90;99.90
25640;DHT22;13497;48.322;16.204;2023-11-19T07:36:08;5.00;99.90
25640;DHT22;13497;48.322;16.204;2023-11-19T07:38:34;5.00;99.90
25640;DHT22;13497;48.322;16.204;2023-11-19T07:41:00;5.10;99.90
25640;DHT22;13497;48.322;16.204;2023-11-19T07:43:26;5.10;99.90
25640;DHT22;13497;48.322;16.204;2023-11-19T07:45:52;5.00;99.90
25640;DHT22;13497;48.322;16.204;2023-11-19T07:48:18;5.00;99.90
25640;DHT22;13497;48.322;16.204;2023-11-19T07:50:49;5.00;99.90
25640;DHT22;13497;48.322;16.204;2023-11-19T07:53:18;5.00;99.90
25640;DHT22;13497;48.322;16.204;2023-11-19T07:55:44;5.00;99.90
25640;DHT22;13497;48.322;16.204;2023-11-19T07:58:10;5.10;99.90
25640;DHT22;13497;48.322;16.204;2023-11-19T08:00:36;5.10;99.90
25640;DHT22;13497;48.322;16.204;2023-11-19T08:03:05;5.20;99.90
25640;DHT22;13497;48.322;16.204;2023-11-19T08:05:31;5.30;99.90
25640;DHT22;13497;48.322;16.204;2023-11-19T08:07:57;5.40;99.90
25640;DHT22;13497;48.322;16.204;2023-11-19T08:10:23;5.60;99.90
25640;DHT22;13497;48.322;16.204;2023-11-19T08:12:49;5.60;99.90
25640;DHT22;13497;48.322;16.204;2023-11-19T08:15:15;5.70;99.90
25640;DHT22;13497;48.322;16.204;2023-11-19T08:17:42;5.80;99.90
25640;DHT22;13497;48.322;16.204;2023-11-19T08:20:09;5.80;99.90
25640;DHT22;13497;48.322;16.204;2023-11-19T08:22:36;5.90;99.90
25640;DHT22;13497;48.322;16.204;2023-11-19T08:25:07;5.90;99.90
25640;DHT22;13497;48.322;16.204;2023-11-19T08:27:33;6.00;99.90
25640;DHT22;13497;48.322;16.204;2023-11-19T08:29:59;6.10;99.90
25640;DHT22;13497;48.322;16.204;2023-11-19T08:32:25;6.20;99.90
25640;DHT22;13497;48.322;16.204;2023-11-19T08:34:51;6.30;99.90
25640;DHT22;13497;48.322;16.204;2023-11-19T08:37:17;6.30;99.90
25640;DHT22;13497;48.322;16.204;2023-11-19T08:39:50;6.50;99.90
25640;DHT22;13497;48.322;16.204;2023-11-19T08:42:16;6.50;99.90
25640;DHT22;13497;48.322;16.204;2023-11-19T08:44:43;6.50;99.90
25640;DHT22;13497;48.322;16.204;2023-11-19T08:47:13;6.40;99.90
25640;DHT22;13497;48.322;16.204;2023-11-19T08:49:39;6.50;99.90
25640;DHT22;13497;48.322;16.204;2023-11-19T08:52:05;6.60;99.90
25640;DHT22;13497;48.322;16.204;2023-11-19T08:54:34;6.60;99.90
25640;DHT22;13497;48.322;16.204;2023-11-19T08:57:00;6.70;99.90
25640;DHT22;13497;48.322;16.204;2023-11-19T08:59:26;6.70;99.90
25640;DHT22;13497;48.322;16.204;2023-11-19T09:01:51;6.70;99.90
25640;DHT22;13497;48.322;16.204;2023-11-19T09:04:17;6.80;99.90
25640;DHT22;13497;48.322;16.204;2023-11-19T09:06:42;6.90;99.90
25640;DHT22;13497;48.322;16.204;2023-11-19T09:09:09;6.90;99.90
25640;DHT22;13497;48.322;16.204;2023-11-19T09:11:35;7.00;99.90
25640;DHT22;13497;48.322;16.204;2023-11-19T09:14:00;7.20;99.90
25640;DHT22;13497;48.322;16.204;2023-11-19T09:16:26;7.30;99.90
25640;DHT22;13497;48.322;16.204;2023-11-19T09:18:52;7.40;99.90
25640;DHT22;13497;48.322;16.204;2023-11-19T09:21:17;7.50;99.90
25640;DHT22;13497;48.322;16.204;2023-11-19T09:23:43;8.00;99.90
25640;DHT22;13497;48.322;16.204;2023-11-19T09:26:09;8.20;99.90
25640;DHT22;13497;48.322;16.204;2023-11-19T09:28:37;8.10;99.90
25640;DHT22;13497;48.322;16.204;2023-11-19T09:31:03;8.00;99.90
25640;DHT22;13497;48.322;16.204;2023-11-19T09:33:30;8.00;99.90
25640;DHT22;13497;48.322;16.204;2023-11-19T09:35:56;8.00;99.90
25640;DHT22;13497;48.322;16.204;2023-11-19T09:38:21;8.10;99.90
25640;DHT22;13497;48.322;16.204;2023-11-19T09:40:47;8.10;99.90
25640;DHT22;13497;48.322;16.204;2023-11-19T09:43:15;8.00;99.90
25640;DHT22;13497;48.322;16.204;2023-11-19T09:45:50;8.00;99.90
25640;DHT22;13497;48.322;16.204;2023-11-19T09:48:19;8.00;99.90
25640;DHT22;13497;48.322;16.204;2023-11-19T09:50:48;8.10;99.90
25640;DHT22;13497;48.322;16.204;2023-11-19T09:53:15;8.10;99.90
25640;DHT22;13497;48.322;16.204;2023-11-19T09:55:42;8.20;99.90
25640;DHT22;13497;48.322;16.204;2023-11-19T09:58:08;8.40;99.90
25640;DHT22;13497;48.322;16.204;2023-11-19T10:00:34;8.60;99.90
25640;DHT22;13497;48.322;16.204;2023-11-19T10:03:00;8.60;99.90
25640;DHT22;13497;48.322;16.204;2023-11-19T10:05:26;8.70;99.90
25640;DHT22;13497;48.322;16.204;2023-11-19T10:07:55;8.70;99.90
25640;DHT22;13497;48.322;16.204;2023-11-19T10:10:21;8.60;99.90
25640;DHT22;13497;48.322;16.204;2023-11-19T10:12:46;8.50;99.90
25640;DHT22;13497;48.322;16.204;2023-11-19T10:15:23;8.50;99.90
25640;DHT22;13497;48.322;16.204;2023-11-19T10:17:50;8.40;99.90
25640;DHT22;13497;48.322;16.204;2023-11-19T10:20:16;8.40;99.90
25640;DHT22;13497;48.322;16.204;2023-11-19T10:22:42;8.40;99.90
25640;DHT22;13497;48.322;16.204;2023-11-19T10:25:28;8.50;99.90
25640;DHT22;13497;48.322;16.204;2023-11-19T10:27:55;8.50;99.90
25640;DHT22;13497;48.322;16.204;2023-11-19T10:30:25;8.60;99.90
25640;DHT22;13497;48.322;16.204;2023-11-19T10:33:05;8.60;99.90
25640;DHT22;13497;48.322;16.204;2023-11-19T10:35:35;8.50;99.90
25640;DHT22;13497;48.322;16.204;2023-11-19T10:38:13;8.60;99.90
25640;DHT22;13497;48.322;16.204;2023-11-19T10:40:40;8.60;99.90
25640;DHT22;13497;48.322;16.204;2023-11-19T10:43:06;8.60;99.90
25640;DHT22;13497;48.322;16.204;2023-11-19T10:45:33;8.60;99.90
25640;DHT22;13497;48.322;16.204;2023-11-19T10:47:59;8.50;99.90
25640;DHT22;13497;48.322;16.204;2023-11-19T10:50:26;8.50;99.90
25640;DHT22;13497;48.322;16.204;2023-11-19T10:52:57;8.40;99.90
25640;DHT22;13497;48.322;16.204;2023-11-19T10:55:30;8.40;99.90
25640;DHT22;13497;48.322;16.204;2023-11-19T10:58:02;8.30;99.90
25640;DHT22;13497;48.322;16.204;2023-11-19T11:00:52;8.50;99.90
25640;DHT22;13497;48.322;16.204;2023-11-19T11:03:25;8.50;99.90
25640;DHT22;13497;48.322;16.204;2023-11-19T11:05:52;8.40;99.90
25640;DHT22;13497;48.322;16.204;2023-11-19T11:08:19;8.50;99.90
25640;DHT22;13497;48.322;16.204;2023-11-19T11:10:52;8.40;99.90
25640;DHT22;13497;48.322;16.204;2023-11-19T11:13:18;8.50;99.90
25640;DHT22;13497;48.322;16.204;2023-11-19T11:15:45;8.50;99.90
25640;DHT22;13497;48.322;16.204;2023-11-19T11:18:12;8.40;99.90
25640;DHT22;13497;48.322;16.204;2023-11-19T11:20:39;8.40;99.90
25640;DHT22;13497;48.322;16.204;2023-11-19T11:25:52;8.50;99.90
25640;DHT22;13497;48.322;16.204;2023-11-19T11:39:16;8.20;99.90
25640;DHT22;13497;48.322;16.204;2023-11-19T11:41:42;8.10;99.90
25640;DHT22;13497;48.322;16.204;2023-11-19T11:44:08;8.20;99.90
25640;DHT22;13497;48.322;16.204;2023-11-19T11:49:04;8.50;99.90
25640;DHT22;13497;48.322;16.204;2023-11-19T11:54:26;8.50;99.90
25640;DHT22;13497;48.322;16.204;2023-11-19T11:57:11;8.60;99.90
25640;DHT22;13497;48.322;16.204;2023-11-19T12:02:04;8.80;99.90
25640;DHT22;13497;48.322;16.204;2023-11-19T12:04:30;8.80;99.90
25640;DHT22;13497;48.322;16.204;2023-11-19T12:07:07;9.00;99.90
25640;DHT22;13497;48.322;16.204;2023-11-19T12:09:33;9.10;99.90
25640;DHT22;13497;48.322;16.204;2023-11-19T12:20:05;9.30;99.90
25640;DHT22;13497;48.322;16.204;2023-11-19T12:22:31;9.40;99.90
25640;DHT22;13497;48.322;16.204;2023-11-19T12:24:58;9.60;99.90
25640;DHT22;13497;48.322;16.204;2023-11-19T12:27:24;9.70;99.90
25640;DHT22;13497;48.322;16.204;2023-11-19T12:29:50;9.70;99.90
25640;DHT22;13497;48.322;16.204;2023-11-19T12:32:16;9.50;99.90
25640;DHT22;13497;48.322;16.204;2023-11-19T12:34:41;9.40;99.90
25640;DHT22;13497;48.322;16.204;2023-11-19T12:37:08;9.50;99.90
25640;DHT22;13497;48.322;16.204;2023-11-19T12:39:35;9.40;99.90
25640;DHT22;13497;48.322;16.204;2023-11-19T12:42:01;9.40;99.90
25640;DHT22;13497;48.322;16.204;2023-11-19T12:44:27;9.30;99.90
25640;DHT22;13497;48.322;16.204;2023-11-19T12:47:03;9.20;99.90
25640;DHT22;13497;48.322;16.204;2023-11-19T12:49:29;9.00;99.90
25640;DHT22;13497;48.322;16.204;2023-11-19T12:51:55;9.00;99.90
25640;DHT22;13497;48.322;16.204;2023-11-19T12:54:32;8.90;99.90
25640;DHT22;13497;48.322;16.204;2023-11-19T12:56:58;8.90;99.90
25640;DHT22;13497;48.322;16.204;2023-11-19T12:59:24;8.90;99.90
25640;DHT22;13497;48.322;16.204;2023-11-19T13:01:59;8.80;99.90
25640;DHT22;13497;48.322;16.204;2023-11-19T13:04:29;8.80;99.90
25640;DHT22;13497;48.322;16.204;2023-11-19T13:07:01;8.90;99.90
25640;DHT22;13497;48.322;16.204;2023-11-19T13:09:30;8.90;99.90
25640;DHT22;13497;48.322;16.204;2023-11-19T13:11:56;8.90;99.90
25640;DHT22;13497;48.322;16.204;2023-11-19T13:14:22;9.00;99.90
25640;DHT22;13497;48.322;16.204;2023-11-19T13:16:49;9.00;99.90
25640;DHT22;13497;48.322;16.204;2023-11-19T13:19:15;9.00;99.90
25640;DHT22;13497;48.322;16.204;2023-11-19T13:21:45;9.00;99.90
25640;DHT22;13497;48.322;16.204;2023-11-19T13:24:13;9.00;99.90
25640;DHT22;13497;48.322;16.204;2023-11-19T13:26:39;9.00;99.90
25640;DHT22;13497;48.322;16.204;2023-11-19T13:29:04;9.00;99.90
25640;DHT22;13497;48.322;16.204;2023-11-19T13:31:30;9.00;99.90
25640;DHT22;13497;48.322;16.204;2023-11-19T13:33:56;9.10;99.90
25640;DHT22;13497;48.322;16.204;2023-11-19T13:36:23;9.10;99.90
25640;DHT22;13497;48.322;16.204;2023-11-19T13:38:49;9.20;99.90
25640;DHT22;13497;48.322;16.204;2023-11-19T13:41:15;9.30;99.90
25640;DHT22;13497;48.322;16.204;2023-11-19T13:43:41;9.20;99.90
25640;DHT22;13497;48.322;16.204;2023-11-19T13:46:07;9.20;99.90
25640;DHT22;13497;48.322;16.204;2023-11-19T13:48:35;9.20;99.90
25640;DHT22;13497;48.322;16.204;2023-11-19T13:51:01;9.10;99.90
25640;DHT22;13497;48.322;16.204;2023-11-19T13:53:26;9.20;99.90
25640;DHT22;13497;48.322;16.204;2023-11-19T13:55:52;9.30;99.90
25640;DHT22;13497;48.322;16.204;2023-11-19T13:58:18;9.40;99.90
25640;DHT22;13497;48.322;16.204;2023-11-19T14:00:44;9.60;99.90
25640;DHT22;13497;48.322;16.204;2023-11-19T14:03:10;9.60;99.90
25640;DHT22;13497;48.322;16.204;2023-11-19T14:05:39;9.70;99.90
25640;DHT22;13497;48.322;16.204;2023-11-19T14:08:06;9.80;99.90
25640;DHT22;13497;48.322;16.204;2023-11-19T14:10:39;9.90;99.90
25640;DHT22;13497;48.322;16.204;2023-11-19T14:13:08;9.90;99.90
25640;DHT22;13497;48.322;16.204;2023-11-19T14:15:34;10.00;99.90
25640;DHT22;13497;48.322;16.204;2023-11-19T14:18:01;9.90;99.90
25640;DHT22;13497;48.322;16.204;2023-11-19T14:20:27;10.00;99.90
25640;DHT22;13497;48.322;16.204;2023-11-19T14:22:52;10.00;99.90
25640;DHT22;13497;48.322;16.204;2023-11-19T14:25:18;10.00;99.90
25640;DHT22;13497;48.322;16.204;2023-11-19T14:27:45;10.00;99.90
25640;DHT22;13497;48.322;16.204;2023-11-19T14:30:13;9.70;99.90
25640;DHT22;13497;48.322;16.204;2023-11-19T14:32:40;9.40;99.90
25640;DHT22;13497;48.322;16.204;2023-11-19T14:35:06;9.20;99.90
25640;DHT22;13497;48.322;16.204;2023-11-19T14:37:32;9.10;99.90
25640;DHT22;13497;48.322;16.204;2023-11-19T14:39:59;8.90;99.90
25640;DHT22;13497;48.322;16.204;2023-11-19T14:42:25;8.80;99.90
25640;DHT22;13497;48.322;16.204;2023-11-19T14:44:54;8.80;99.90
25640;DHT22;13497;48.322;16.204;2023-11-19T14:47:20;8.70;99.90
25640;DHT22;13497;48.322;16.204;2023-11-19T14:49:48;8.70;99.90
25640;DHT22;13497;48.322;16.204;2023-11-19T14:52:13;8.60;99.90
25640;DHT22;13497;48.322;16.204;2023-11-19T14:54:39;8.70;99.90
25640;DHT22;13497;48.322;16.204;2023-11-19T14:57:05;8.80;99.90
25640;DHT22;13497;48.322;16.204;2023-11-19T14:59:33;8.80;99.90
25640;DHT22;13497;48.322;16.204;2023-11-19T15:01:59;8.90;99.90
25640;DHT22;13497;48.322;16.204;2023-11-19T15:04:26;8.90;99.90
25640;DHT22;13497;48.322;16.204;2023-11-19T15:06:52;8.90;99.90
25640;DHT22;13497;48.322;16.204;2023-11-19T15:09:18;8.80;99.90
25640;DHT22;13497;48.322;16.204;2023-11-19T15:11:46;8.80;99.90
25640;DHT22;13497;48.322;16.204;2023-11-19T15:14:15;8.90;99.90
25640;DHT22;13497;48.322;16.204;2023-11-19T15:16:45;8.90;99.90
25640;DHT22;13497;48.322;16.204;2023-11-19T15:19:11;8.90;99.90
25640;DHT22;13497;48.322;16.204;2023-11-19T15:21:40;9.00;99.90
25640;DHT22;13497;48.322;16.204;2023-11-19T15:24:08;9.00;99.90
25640;DHT22;13497;48.322;16.204;2023-11-19T15:26:37;8.80;99.90
25640;DHT22;13497;48.322;16.204;2023-11-19T15:29:03;8.60;99.90
25640;DHT22;13497;48.322;16.204;2023-11-19T15:31:29;8.40;99.90
25640;DHT22;13497;48.322;16.204;2023-11-19T15:33:56;8.30;99.90
25640;DHT22;13497;48.322;16.204;2023-11-19T15:36:21;8.10;99.90
25640;DHT22;13497;48.322;16.204;2023-11-19T15:38:47;7.90;99.90
25640;DHT22;13497;48.322;16.204;2023-11-19T15:41:13;7.90;99.90
25640;DHT22;13497;48.322;16.204;2023-11-19T15:43:39;7.90;99.90
25640;DHT22;13497;48.322;16.204;2023-11-19T15:46:09;7.90;99.90
25640;DHT22;13497;48.322;16.204;2023-11-19T15:48:35;7.90;99.90
25640;DHT22;13497;48.322;16.204;2023-11-19T15:51:01;7.80;99.90
25640;DHT22;13497;48.322;16.204;2023-11-19T15:53:28;7.70;99.90
25640;DHT22;13497;48.322;16.204;2023-11-19T15:55:54;7.60;99.90
25640;DHT22;13497;48.322;16.204;2023-11-19T15:58:20;7.50;99.90
25640;DHT22;13497;48.322;16.204;2023-11-19T16:00:47;7.50;99.90